createdAt,value
2018-06-23T00:01:02.162Z,73.00
2018-06-23T00:03:35.381Z,75.10
2018-06-23T00:06:10.214Z,74.00
2018-06-23T00:08:43.316Z,71.50
2018-06-23T00:11:17.674Z,72.20
2018-06-23T00:13:50.821Z,72.30
2018-06-23T00:16:23.982Z,70.50
2018-06-23T00:18:57.040Z,69.70
2018-06-23T00:21:30.274Z,69.40
2018-06-23T00:24:03.488Z,71.50
2018-06-23T00:26:36.857Z,72.20
2018-06-23T00:29:10.440Z,71.90
2018-06-23T00:31:43.752Z,73.10
2018-06-23T00:34:16.797Z,73.80
2018-06-23T00:36:50.031Z,70.00
2018-06-23T00:39:23.045Z,73.70
2018-06-23T00:41:56.244Z,73.60
2018-06-23T00:44:29.348Z,73.20
2018-06-23T00:47:02.573Z,73.80
2018-06-23T00:49:35.747Z,70.80
2018-06-23T00:52:08.922Z,68.20
2018-06-23T00:54:42.074Z,69.60
2018-06-23T00:57:15.255Z,70.80
2018-06-23T00:59:48.373Z,73.70
2018-06-23T01:02:21.546Z,71.10
2018-06-23T01:04:54.878Z,72.40
2018-06-23T01:07:27.915Z,73.40
2018-06-23T01:10:01.610Z,75.60
2018-06-23T01:12:34.757Z,75.80
2018-06-23T01:15:08.017Z,75.80
2018-06-23T01:17:42.167Z,75.00
2018-06-23T01:20:15.285Z,74.80
2018-06-23T01:22:48.400Z,74.90
2018-06-23T01:25:22.877Z,76.20
2018-06-23T01:27:56.266Z,76.10
2018-06-23T01:30:29.388Z,75.90
2018-06-23T01:33:03.289Z,76.20
2018-06-23T01:35:36.328Z,77.10
2018-06-23T01:38:09.474Z,77.30
2018-06-23T01:40:42.665Z,77.60
2018-06-23T01:43:15.666Z,79.80
2018-06-23T01:45:48.754Z,78.80
2018-06-23T01:48:21.861Z,79.60
2018-06-23T01:50:54.892Z,80.10
2018-06-23T01:53:27.947Z,80.10
2018-06-23T01:56:01.097Z,79.60
2018-06-23T01:58:34.130Z,81.10
2018-06-23T02:01:07.223Z,81.50
2018-06-23T02:03:40.343Z,81.60
2018-06-23T02:06:13.399Z,81.90
2018-06-23T02:08:46.519Z,81.50
2018-06-23T02:11:19.719Z,81.20
2018-06-23T02:15:59.951Z,82.10
2018-06-23T02:18:37.077Z,81.50
2018-06-23T02:21:14.990Z,82.80
2018-06-23T02:26:00.533Z,81.20
2018-06-23T02:28:37.677Z,81.10
2018-06-23T02:31:14.868Z,82.90
2018-06-23T02:33:52.264Z,82.40
2018-06-23T02:36:25.320Z,83.30
2018-06-23T02:38:58.564Z,83.20
2018-06-23T02:41:33.154Z,83.70
2018-06-23T02:44:06.227Z,84.10
2018-06-23T02:46:39.336Z,84.70
2018-06-23T02:49:12.432Z,84.60
2018-06-23T02:51:45.745Z,84.20
2018-06-23T02:54:18.887Z,83.30
2018-06-23T02:56:52.097Z,83.80
2018-06-23T02:59:25.394Z,84.10
2018-06-23T03:01:58.808Z,85.40
2018-06-23T03:04:32.400Z,86.10
2018-06-23T03:07:05.547Z,86.50
2018-06-23T03:09:38.601Z,86.80
2018-06-23T03:12:12.050Z,85.90
2018-06-23T03:14:45.360Z,86.00
2018-06-23T03:17:19.471Z,87.30
2018-06-23T03:19:53.573Z,88.20
2018-06-23T03:22:26.728Z,90.10
2018-06-23T03:25:00.661Z,90.80
2018-06-23T03:27:33.710Z,90.90
2018-06-23T03:30:06.830Z,91.00
2018-06-23T03:32:40.059Z,90.90
2018-06-23T03:35:13.308Z,91.60
2018-06-23T03:37:46.475Z,92.50
2018-06-23T03:40:19.570Z,93.30
2018-06-23T03:42:52.682Z,93.60
2018-06-23T03:45:26.977Z,95.00
2018-06-23T03:48:00.446Z,95.40
2018-06-23T03:50:34.552Z,94.90
2018-06-23T03:53:07.941Z,95.00
2018-06-23T03:55:41.465Z,95.20
2018-06-23T03:58:15.152Z,94.80
2018-06-23T04:00:52.489Z,95.40
2018-06-23T04:03:26.305Z,94.70
2018-06-23T04:05:59.379Z,95.40
2018-06-23T04:08:32.527Z,95.20
2018-06-23T04:11:07.350Z,94.80
2018-06-23T04:13:40.508Z,94.80
2018-06-23T04:16:13.521Z,94.70
2018-06-23T04:18:51.824Z,95.00
2018-06-23T04:21:25.067Z,95.50
2018-06-23T04:23:58.272Z,94.60
2018-06-23T04:26:31.692Z,94.50
2018-06-23T04:29:04.905Z,94.40
2018-06-23T04:31:38.489Z,94.90
2018-06-23T04:34:11.641Z,94.60
2018-06-23T04:36:44.748Z,96.80
2018-06-23T04:39:17.850Z,98.90
2018-06-23T04:41:51.112Z,99.80
2018-06-23T04:44:24.220Z,99.90
2018-06-23T04:46:57.714Z,99.20
2018-06-23T04:49:31.004Z,99.40
2018-06-23T04:52:04.137Z,99.30
2018-06-23T04:54:37.201Z,99.90
2018-06-23T04:57:10.577Z,99.90
2018-06-23T04:59:43.668Z,99.90
2018-06-23T05:02:17.471Z,99.90
2018-06-23T05:04:50.537Z,99.90
2018-06-23T05:07:24.593Z,99.90
2018-06-23T05:09:57.749Z,99.90
2018-06-23T05:12:30.967Z,99.90
2018-06-23T05:15:04.206Z,99.90
2018-06-23T05:17:39.421Z,99.90
2018-06-23T05:20:12.653Z,99.90
2018-06-23T05:22:45.780Z,99.90
2018-06-23T05:25:18.984Z,99.90
2018-06-23T05:27:52.119Z,99.90
2018-06-23T05:30:25.222Z,99.90
2018-06-23T05:32:58.495Z,99.90
2018-06-23T05:35:31.643Z,99.90
2018-06-23T05:38:04.942Z,99.90
2018-06-23T05:40:38.358Z,99.90
2018-06-23T05:43:11.582Z,99.90
2018-06-23T05:45:45.566Z,99.90
2018-06-23T05:48:18.806Z,99.90
2018-06-23T05:50:52.725Z,99.90
2018-06-23T05:53:26.072Z,99.90
2018-06-23T05:55:59.400Z,99.90
2018-06-23T05:58:32.648Z,99.90
2018-06-23T06:01:05.815Z,99.90
2018-06-23T06:03:39.071Z,99.90
2018-06-23T06:06:12.129Z,99.90
2018-06-23T06:08:45.432Z,99.90
2018-06-23T06:11:18.811Z,99.90
2018-06-23T06:13:52.415Z,99.90
2018-06-23T06:16:32.446Z,99.90
2018-06-23T06:19:05.711Z,99.90
2018-06-23T06:21:38.983Z,99.90
2018-06-23T06:24:12.307Z,99.90
2018-06-23T06:26:45.370Z,99.90
2018-06-23T06:29:18.875Z,99.90
2018-06-23T06:31:52.137Z,99.90
2018-06-23T06:34:25.190Z,99.90
2018-06-23T06:36:58.289Z,99.90
2018-06-23T06:39:31.326Z,99.90
2018-06-23T06:42:04.483Z,99.90
2018-06-23T06:44:39.642Z,99.90
2018-06-23T06:49:56.539Z,99.90
2018-06-23T06:52:29.586Z,99.90
2018-06-23T06:55:02.774Z,99.90
2018-06-23T06:57:35.871Z,99.90
2018-06-23T07:00:09.606Z,99.90
2018-06-23T07:02:42.614Z,99.90
2018-06-23T07:05:15.628Z,99.90
2018-06-23T07:07:48.523Z,99.90
2018-06-23T07:10:21.629Z,99.90
2018-06-23T07:12:54.775Z,99.90
2018-06-23T07:15:27.968Z,99.90
2018-06-23T07:18:01.265Z,99.90
2018-06-23T07:20:34.436Z,99.90
2018-06-23T07:23:07.651Z,99.90
2018-06-23T07:25:40.763Z,99.90
2018-06-23T07:28:13.846Z,99.90
2018-06-23T07:30:47.190Z,99.90
2018-06-23T07:33:20.324Z,99.90
2018-06-23T07:35:53.452Z,99.90
2018-06-23T07:38:26.597Z,99.90
2018-06-23T07:40:59.681Z,99.90
2018-06-23T07:43:32.708Z,99.90
2018-06-23T15:44:24.654Z,99.90
2018-06-23T15:46:57.763Z,99.90
2018-06-23T15:49:40.411Z,99.90
2018-06-23T15:52:14.254Z,99.90
2018-06-23T15:54:48.158Z,99.90
2018-06-23T15:57:21.052Z,99.90
2018-06-23T15:59:54.044Z,99.90
2018-06-23T16:02:27.039Z,99.90
2018-06-23T16:05:00.956Z,99.90
2018-06-23T16:07:34.109Z,99.90
2018-06-23T16:10:08.017Z,99.90
2018-06-23T16:12:41.169Z,99.90
2018-06-23T16:15:14.136Z,99.90
2018-06-23T16:17:47.372Z,99.90
2018-06-23T16:20:20.542Z,99.90
2018-06-23T16:22:54.171Z,99.90
2018-06-23T16:25:27.245Z,99.90
2018-06-23T16:28:00.291Z,99.90
2018-06-23T16:30:33.406Z,99.90
2018-06-23T16:33:06.560Z,99.90
2018-06-23T16:35:39.618Z,99.90
2018-06-23T16:38:12.799Z,99.90
2018-06-23T16:40:45.842Z,99.90
2018-06-23T16:43:19.909Z,99.90
2018-06-23T16:45:54.132Z,99.90
2018-06-23T16:48:27.163Z,99.90
2018-06-23T16:51:00.215Z,99.90
2018-06-23T16:53:33.656Z,99.90
2018-06-23T16:56:06.789Z,99.90
2018-06-23T16:58:39.780Z,99.90
2018-06-23T17:01:12.753Z,99.90
2018-06-23T17:03:45.759Z,99.90
2018-06-23T17:06:19.686Z,99.90
2018-06-23T17:08:52.613Z,99.90
2018-06-23T17:11:26.675Z,99.90
2018-06-23T17:13:59.647Z,99.90
2018-06-23T17:16:32.719Z,99.90
2018-06-23T17:19:05.989Z,99.90
2018-06-23T17:21:42.755Z,99.90
2018-06-23T17:24:16.779Z,99.90
2018-06-23T17:26:50.906Z,99.90
2018-06-23T17:29:23.988Z,99.90
2018-06-23T17:31:57.013Z,99.90
2018-06-23T17:34:31.182Z,99.50
2018-06-23T17:37:04.183Z,99.60
2018-06-23T17:39:37.121Z,99.90
2018-06-23T17:42:10.339Z,99.50
2018-06-23T17:44:43.395Z,99.60
2018-06-23T17:47:16.610Z,99.50
2018-06-23T17:49:49.549Z,99.40
2018-06-23T17:52:22.763Z,98.70
2018-06-23T17:54:55.842Z,99.90
2018-06-23T17:57:29.777Z,99.90
2018-06-23T18:00:02.924Z,99.90
2018-06-23T18:02:36.014Z,98.50
2018-06-23T18:05:09.043Z,98.50
2018-06-23T18:07:42.117Z,99.40
2018-06-23T18:10:15.103Z,98.00
2018-06-23T18:12:49.082Z,97.50
2018-06-23T18:15:22.068Z,96.10
2018-06-23T18:17:55.674Z,96.40
2018-06-23T18:20:28.670Z,96.60
2018-06-23T18:23:02.107Z,96.30
2018-06-23T18:25:35.013Z,96.70
2018-06-23T18:28:08.092Z,97.20
2018-06-23T18:30:41.171Z,96.50
2018-06-23T18:33:14.258Z,95.50
2018-06-23T18:35:47.295Z,95.40
2018-06-23T18:38:20.449Z,97.10
2018-06-23T18:40:54.312Z,96.80
2018-06-23T18:43:27.453Z,97.40
2018-06-23T18:46:00.509Z,97.30
2018-06-23T18:48:33.681Z,97.80
2018-06-23T18:51:06.634Z,96.10
2018-06-23T18:53:39.674Z,96.60
2018-06-23T18:56:12.759Z,96.10
2018-06-23T18:58:45.940Z,96.30
2018-06-23T19:01:19.107Z,96.90
2018-06-23T19:04:08.805Z,95.80
2018-06-23T19:06:54.646Z,96.10
2018-06-23T19:09:37.835Z,96.10
2018-06-23T19:12:28.373Z,96.30
2018-06-23T19:15:18.469Z,95.80
2018-06-23T19:18:11.047Z,95.40
2018-06-23T19:20:48.618Z,96.20
2018-06-23T19:23:28.321Z,95.70
2018-06-23T19:26:17.900Z,96.10
2018-06-23T19:29:06.789Z,96.30
2018-06-23T19:31:54.839Z,96.20
2018-06-23T19:34:43.635Z,97.10
2018-06-23T19:37:30.969Z,97.40
2018-06-23T19:40:13.397Z,96.70
2018-06-23T19:42:57.446Z,96.90
2018-06-23T19:45:42.765Z,96.70
2018-06-23T19:48:15.693Z,95.90
2018-06-23T19:50:49.291Z,95.90
2018-06-23T19:53:22.309Z,95.70
2018-06-23T19:55:55.225Z,94.70
2018-06-23T19:58:28.173Z,94.30
2018-06-23T20:01:01.109Z,93.70
2018-06-23T20:03:34.503Z,93.10
2018-06-23T20:06:07.601Z,93.10
2018-06-23T20:08:49.406Z,93.30
2018-06-23T20:11:22.366Z,94.80
2018-06-23T20:13:55.467Z,94.40
2018-06-23T20:16:28.556Z,94.00
2018-06-23T20:19:01.488Z,92.40
2018-06-23T20:21:34.534Z,92.40
2018-06-23T20:24:07.833Z,93.10
2018-06-23T20:26:40.865Z,92.90
2018-06-23T20:29:14.103Z,92.60
2018-06-23T20:31:47.224Z,93.00
2018-06-23T20:34:20.289Z,92.50
2018-06-23T20:36:53.403Z,93.40
2018-06-23T20:39:26.473Z,93.60
2018-06-23T20:41:59.515Z,93.50
2018-06-23T20:44:32.826Z,93.90
2018-06-23T20:47:06.018Z,94.30
2018-06-23T20:49:39.156Z,94.00
2018-06-23T20:52:13.745Z,95.80
2018-06-23T20:54:48.914Z,93.30
2018-06-23T20:57:22.078Z,93.70
2018-06-23T20:59:55.150Z,93.30
2018-06-23T21:02:28.221Z,94.10
2018-06-23T21:05:01.347Z,94.80
2018-06-23T21:07:34.423Z,92.90
2018-06-23T21:10:07.712Z,92.10
2018-06-23T21:12:40.830Z,92.80
2018-06-23T21:15:14.041Z,93.00
2018-06-23T21:17:47.057Z,92.50
2018-06-23T21:20:20.183Z,92.80
2018-06-23T21:22:54.226Z,91.80
2018-06-23T21:25:27.315Z,90.90
2018-06-23T21:28:00.321Z,92.00
2018-06-23T21:30:33.377Z,91.60
2018-06-23T21:33:06.509Z,92.00
2018-06-23T21:35:39.596Z,91.50
2018-06-23T21:38:12.600Z,91.90
2018-06-23T21:40:45.671Z,91.30
2018-06-23T21:43:18.769Z,92.00
2018-06-23T21:45:51.747Z,91.10
2018-06-23T21:48:24.792Z,90.90
2018-06-23T21:50:57.838Z,90.20
2018-06-23T21:53:31.129Z,88.90
2018-06-23T21:56:05.598Z,86.50
2018-06-23T21:58:41.243Z,85.60
2018-06-23T22:01:16.489Z,82.90
2018-06-23T22:03:51.246Z,82.90
2018-06-23T22:06:27.107Z,86.80
2018-06-23T22:09:00.276Z,85.30
2018-06-23T22:11:34.447Z,83.00
2018-06-23T22:14:07.635Z,83.70
2018-06-23T22:16:44.949Z,85.90
2018-06-23T22:19:18.090Z,86.20
2018-06-23T22:21:58.149Z,84.80
2018-06-23T22:24:33.382Z,84.80
2018-06-23T22:27:10.651Z,86.50
2018-06-23T22:29:50.648Z,85.60
2018-06-23T22:32:23.762Z,86.60
2018-06-23T22:34:56.899Z,87.40
2018-06-23T22:37:29.986Z,83.60
2018-06-23T22:40:03.020Z,83.90
2018-06-23T22:42:36.124Z,82.40
2018-06-23T22:45:09.807Z,83.10
2018-06-23T22:47:43.940Z,85.40
2018-06-23T22:50:16.966Z,87.00
2018-06-23T22:52:50.063Z,81.20
2018-06-23T22:55:23.123Z,82.00
2018-06-23T22:57:56.044Z,81.00
2018-06-23T23:00:29.136Z,80.40
2018-06-23T23:03:02.328Z,77.60
2018-06-23T23:05:35.352Z,78.40
2018-06-23T23:08:08.339Z,80.00
2018-06-23T23:10:41.447Z,78.90
2018-06-23T23:13:14.607Z,78.00
2018-06-23T23:15:47.675Z,78.20
2018-06-23T23:18:23.219Z,78.00
2018-06-23T23:20:56.716Z,78.40
2018-06-23T23:23:29.868Z,78.20
2018-06-23T23:26:03.434Z,74.90
2018-06-23T23:28:36.579Z,74.50
2018-06-23T23:31:09.612Z,75.10
2018-06-23T23:33:43.541Z,76.40
2018-06-23T23:36:16.735Z,76.20
2018-06-23T23:38:50.906Z,75.10
2018-06-23T23:41:24.222Z,75.40
2018-06-23T23:43:57.324Z,76.70
2018-06-23T23:46:30.290Z,75.20
2018-06-23T23:49:03.392Z,75.60
2018-06-23T23:51:36.696Z,80.50
2018-06-23T23:54:09.814Z,79.00
2018-06-23T23:56:44.325Z,76.40
2018-06-23T23:59:18.391Z,77.00
